Portada
METAR-TAF:

METAR-TAF

Aeroports :

Kinshasa, Congo

latitud: 04-23S, longitud: 015-26E, altitud: 309 m

Observació

L'informe es va fer fa 54 minuts, a les 14:30 UTC
Vent 6 kt del Nord/Nord-Oest
Temperatura 28°C
Humitat 66%
Pressió 1012 hPa
Visibilitat: 6000 m
Núvols disperses a una alçada de 2200 ft

METAR: FZAA 241430Z 34006KT 6000 SCT022 28/21 Q1012 NOSIG

Hora: 16:24 (15:24 UTC)

Pronòstic

L'informe es va fer fa 4 hores i 24 minuts, a les 11:00 UTC
Pronòstic vàlid del 24 a les 12 UTC al 25 a les 18 UTC
Vent 8 kt del Oest
Visibilitat: 6000 m
Cel ennuvolat a una alçada de 2000 ft
Evolucionant progressivament
l' 24 a les 17 UTC al 24 a les 19 UTC
Visibilitat: 4000 m
boirina
Evolucionant progressivament
l' 25 a les 10 UTC al 25 a les 12 UTC
Visibilitat: 6000 m

TAF: FZAA 241100Z 2412/2518 28008KT 6000 BKN020 BECMG 2417/2419 4000 BR BECMG 2510/2512 6000 NSW NSC

Observacions i pronòstics meteorològics de més de 4000 aeroports (METAR i TAF).

Les estacions disponibles són els punts grocs i vermells al mapa.

Posi el ratolí al punt desitjat per veure el nom de l'estació.

Feu clic per veure les observacions i els pronòstics meteorològics.

Per canviar el mapa: feu clic els botons verds amb una creu de color negre per apropar; al botó verd amb un guió per allunyar la imatge; o en les fletxes verdes per a mapes adjacents.


METAR-TAF: